Aviation Digital Data Service (ADDS)

Output produced by METARs form (1750 UTC 19 September 2014)
found at http://aviationweather.gov/adds/metars/
 
KAND 191742Z 1918/2018 07008KT P6SM SCT035 BKN120 
     FM200000 08007KT P6SM BKN040 
     FM200700 06005KT P6SM BKN030 
     FM200900 05006KT 5SM BR OVC015 
     FM201300 05010KT P6SM BKN022 
     FM201500 06011KT P6SM BKN035 
     FM201700 07010KT P6SM SCT050